Carbonado, WA (98323)

1:33 AM PST on January 17, 2017 (GMT -0800)
Blacktail Ridge | | Change Station
Active Advisory: Small Craft Advisory

Elev 1089 ft 47.09 °N, 122.06 °W | Updated 1 second ago

Overcast
Overcast
37.2 °F
Feels Like 35 °F
N
3.4
Wind Variable Wind from SE
Gusts 4.9 mph

Today
High -- | Low -- °F
--% Chance of Precip.
Yesterday
High -- | Low -- °F
Precip. -- in
Pressure 29.94 in
Visibility 10.0 miles
Clouds Overcast 7000 ft
Windchill 35 °F
Dew Point 32 °F
Humidity 83%
Rainfall 0.00 in
Snow Depth Not available.
7:48 AM 4:49 PM
Waning Gibbous, 74% visible
METAR KTCM 170858Z AUTO 00000KT 10SM OVC070 04/01 A2992 RMK AO2 SLP138 T00400014 56015 $
Pressure 29.94 in
Visibility 10.0 miles
Clouds Overcast 7000 ft
Windchill 35 °F
Dew Point 32 °F
Humidity 83%
Rainfall 0.00 in
Snow Depth Not available.
7:48 AM 4:49 PM
Waning Gibbous, 74% visible
METAR KTCM 170858Z AUTO 00000KT 10SM OVC070 04/01 A2992 RMK AO2 SLP138 T00400014 56015 $

Get Your Daily Forecast Email!

Thanks for signing up!

Be on the lookout for a verification email in your inbox.

You'll start receiving the daily forecast at 8 AM.

×

10-Day Weather Forecast

Almanac

Astronomy

Jan. 17, 2017 Rise Set
Actual Time
Civil Twilight
Nautical Twilight
Astronomical Twilight
Moon
Length of Visible Light
Length of Day
Tomorrow will be .
, % of the Moon is Illuminated

Today's Extremes

State Highs State Lows

Community

WunderPhotos

Upload Photos

1,962,540 photos uploaded!

WunderBlog® & News

Nearby

Air Quality

  Air Quality AQ Index Pollutant
Not available.

Snow Depth

Station Depth Elevation

Earthquake Activity

City Distance Mag. Time & Date
Minimum magnitude displayed is 2.5.

Coastal Water Temperatures

Place Temperature

Stations

Nearby Weather Stations

Station Location Temp. Windchill Dew Point Humidity Wind Precip. Elev Updated Type
                   

Watches & Warnings

Small Craft Advisory
Issued: 8:52 PM PST Jan. 16, 2017 – National Weather Service

... Small Craft Advisory in effect from 6 am Tuesday to 6 am PST
Wednesday...

The National Weather Service in Seattle has issued a Small Craft
Advisory... which is in effect from 6 am Tuesday to 6 am PST
Wednesday.

* Winds... south 15 to 25 knots.

* Waves... wind waves 2 to 4 feet.

Precautionary/preparedness actions...

A Small Craft Advisory means that wind speeds of 21 to 33 knots are
expected to produce hazardous wave conditions to small craft.
Inexperienced mariners... especially those operating smaller vessels
should avoid navigating in these conditions.